sensor_id;sensor_type;location;lat;lon;timestamp;temperature;humidity
13148;DHT22;6639;50.956;4.242;2023-04-30T00:01:26;17.30;99.10
13148;DHT22;6639;50.956;4.242;2023-04-30T00:03:54;17.40;99.00
13148;DHT22;6639;50.956;4.242;2023-04-30T00:06:21;17.40;99.20
13148;DHT22;6639;50.956;4.242;2023-04-30T00:08:48;17.30;99.10
13148;DHT22;6639;50.956;4.242;2023-04-30T00:11:15;17.30;99.00
13148;DHT22;6639;50.956;4.242;2023-04-30T00:13:42;17.20;99.10
13148;DHT22;6639;50.956;4.242;2023-04-30T00:16:09;17.20;99.10
13148;DHT22;6639;50.956;4.242;2023-04-30T00:18:37;17.10;99.30
13148;DHT22;6639;50.956;4.242;2023-04-30T00:21:04;17.00;99.40
13148;DHT22;6639;50.956;4.242;2023-04-30T00:23:31;17.00;99.40
13148;DHT22;6639;50.956;4.242;2023-04-30T00:25:58;17.10;99.20
13148;DHT22;6639;50.956;4.242;2023-04-30T00:28:25;17.10;99.20
13148;DHT22;6639;50.956;4.242;2023-04-30T00:30:52;17.00;99.20
13148;DHT22;6639;50.956;4.242;2023-04-30T00:33:19;17.00;99.20
13148;DHT22;6639;50.956;4.242;2023-04-30T00:35:48;17.00;99.30
13148;DHT22;6639;50.956;4.242;2023-04-30T00:38:14;17.00;99.20
13148;DHT22;6639;50.956;4.242;2023-04-30T00:40:42;17.00;99.10
13148;DHT22;6639;50.956;4.242;2023-04-30T00:43:10;17.00;99.20
13148;DHT22;6639;50.956;4.242;2023-04-30T00:45:37;17.00;99.10
13148;DHT22;6639;50.956;4.242;2023-04-30T00:48:04;17.00;99.10
13148;DHT22;6639;50.956;4.242;2023-04-30T00:50:31;17.10;99.00
13148;DHT22;6639;50.956;4.242;2023-04-30T00:52:59;17.00;98.90
13148;DHT22;6639;50.956;4.242;2023-04-30T00:55:26;16.90;98.90
13148;DHT22;6639;50.956;4.242;2023-04-30T00:57:53;16.90;98.90
13148;DHT22;6639;50.956;4.242;2023-04-30T01:00:21;16.90;98.80
13148;DHT22;6639;50.956;4.242;2023-04-30T01:02:48;16.90;98.80
13148;DHT22;6639;50.956;4.242;2023-04-30T01:05:15;17.00;98.80
13148;DHT22;6639;50.956;4.242;2023-04-30T01:07:42;17.00;98.70
13148;DHT22;6639;50.956;4.242;2023-04-30T01:10:13;17.00;98.70
13148;DHT22;6639;50.956;4.242;2023-04-30T01:12:45;16.90;98.70
13148;DHT22;6639;50.956;4.242;2023-04-30T01:15:21;16.90;98.70
13148;DHT22;6639;50.956;4.242;2023-04-30T01:17:55;16.70;98.80
13148;DHT22;6639;50.956;4.242;2023-04-30T01:20:23;16.80;98.90
13148;DHT22;6639;50.956;4.242;2023-04-30T01:23:00;16.90;98.80
13148;DHT22;6639;50.956;4.242;2023-04-30T01:28:39;16.60;99.00
13148;DHT22;6639;50.956;4.242;2023-04-30T01:31:12;16.60;98.90
13148;DHT22;6639;50.956;4.242;2023-04-30T01:33:39;16.60;98.80
13148;DHT22;6639;50.956;4.242;2023-04-30T01:36:24;16.20;99.20
13148;DHT22;6639;50.956;4.242;2023-04-30T01:39:14;15.80;99.90
13148;DHT22;6639;50.956;4.242;2023-04-30T01:41:49;15.70;99.90
13148;DHT22;6639;50.956;4.242;2023-04-30T01:44:35;15.70;99.90
13148;DHT22;6639;50.956;4.242;2023-04-30T01:47:11;16.00;99.80
13148;DHT22;6639;50.956;4.242;2023-04-30T01:49:52;16.20;99.50
13148;DHT22;6639;50.956;4.242;2023-04-30T01:52:30;16.10;99.60
13148;DHT22;6639;50.956;4.242;2023-04-30T01:55:00;16.10;99.50
13148;DHT22;6639;50.956;4.242;2023-04-30T01:57:33;16.20;99.50
13148;DHT22;6639;50.956;4.242;2023-04-30T02:00:03;16.10;99.50
13148;DHT22;6639;50.956;4.242;2023-04-30T02:02:30;16.10;99.40
13148;DHT22;6639;50.956;4.242;2023-04-30T02:04:57;16.20;99.40
13148;DHT22;6639;50.956;4.242;2023-04-30T02:07:35;16.20;99.30
13148;DHT22;6639;50.956;4.242;2023-04-30T02:10:04;16.20;99.40
13148;DHT22;6639;50.956;4.242;2023-04-30T02:12:31;16.20;99.20
13148;DHT22;6639;50.956;4.242;2023-04-30T02:14:58;16.20;99.10
13148;DHT22;6639;50.956;4.242;2023-04-30T02:17:26;16.20;99.10
13148;DHT22;6639;50.956;4.242;2023-04-30T02:19:53;16.20;99.00
13148;DHT22;6639;50.956;4.242;2023-04-30T02:22:20;16.10;99.00
13148;DHT22;6639;50.956;4.242;2023-04-30T02:24:47;16.20;98.90
13148;DHT22;6639;50.956;4.242;2023-04-30T02:27:14;16.20;98.80
13148;DHT22;6639;50.956;4.242;2023-04-30T02:29:41;16.20;99.00
13148;DHT22;6639;50.956;4.242;2023-04-30T02:32:08;16.10;98.90
13148;DHT22;6639;50.956;4.242;2023-04-30T02:34:36;16.00;98.90
13148;DHT22;6639;50.956;4.242;2023-04-30T02:37:03;16.00;99.00
13148;DHT22;6639;50.956;4.242;2023-04-30T02:39:30;16.00;98.90
13148;DHT22;6639;50.956;4.242;2023-04-30T02:41:57;15.90;98.90
13148;DHT22;6639;50.956;4.242;2023-04-30T02:44:24;15.80;98.90
13148;DHT22;6639;50.956;4.242;2023-04-30T02:46:51;15.80;98.80
13148;DHT22;6639;50.956;4.242;2023-04-30T02:49:18;15.90;98.80
13148;DHT22;6639;50.956;4.242;2023-04-30T02:51:46;15.70;98.70
13148;DHT22;6639;50.956;4.242;2023-04-30T02:54:13;15.80;98.80
13148;DHT22;6639;50.956;4.242;2023-04-30T02:56:40;15.80;98.80
13148;DHT22;6639;50.956;4.242;2023-04-30T02:59:08;15.60;98.80
13148;DHT22;6639;50.956;4.242;2023-04-30T03:01:35;15.60;98.90
13148;DHT22;6639;50.956;4.242;2023-04-30T03:04:02;15.70;98.90
13148;DHT22;6639;50.956;4.242;2023-04-30T03:06:29;15.70;98.90
13148;DHT22;6639;50.956;4.242;2023-04-30T03:08:58;15.60;98.90
13148;DHT22;6639;50.956;4.242;2023-04-30T03:11:25;15.60;98.90
13148;DHT22;6639;50.956;4.242;2023-04-30T03:13:53;15.70;98.90
13148;DHT22;6639;50.956;4.242;2023-04-30T03:16:20;15.70;98.90
13148;DHT22;6639;50.956;4.242;2023-04-30T03:18:48;15.70;98.80
13148;DHT22;6639;50.956;4.242;2023-04-30T03:21:15;15.60;98.80
13148;DHT22;6639;50.956;4.242;2023-04-30T03:23:42;15.50;99.10
13148;DHT22;6639;50.956;4.242;2023-04-30T03:26:10;15.30;99.20
13148;DHT22;6639;50.956;4.242;2023-04-30T03:28:37;15.20;99.60
13148;DHT22;6639;50.956;4.242;2023-04-30T03:31:04;15.30;99.40
13148;DHT22;6639;50.956;4.242;2023-04-30T03:33:31;15.20;99.50
13148;DHT22;6639;50.956;4.242;2023-04-30T03:35:58;15.30;99.40
13148;DHT22;6639;50.956;4.242;2023-04-30T03:38:25;15.40;99.10
13148;DHT22;6639;50.956;4.242;2023-04-30T03:40:52;15.40;99.10
13148;DHT22;6639;50.956;4.242;2023-04-30T03:43:20;15.50;99.00
13148;DHT22;6639;50.956;4.242;2023-04-30T03:45:47;15.50;98.80
13148;DHT22;6639;50.956;4.242;2023-04-30T03:48:15;15.40;99.00
13148;DHT22;6639;50.956;4.242;2023-04-30T03:50:41;15.30;99.10
13148;DHT22;6639;50.956;4.242;2023-04-30T03:53:08;15.20;99.00
13148;DHT22;6639;50.956;4.242;2023-04-30T03:55:35;15.20;99.00
13148;DHT22;6639;50.956;4.242;2023-04-30T03:58:02;15.20;98.90
13148;DHT22;6639;50.956;4.242;2023-04-30T04:00:31;15.10;98.80
13148;DHT22;6639;50.956;4.242;2023-04-30T04:02:58;15.10;98.90
13148;DHT22;6639;50.956;4.242;2023-04-30T04:05:25;15.10;99.00
13148;DHT22;6639;50.956;4.242;2023-04-30T04:07:52;15.00;98.90
13148;DHT22;6639;50.956;4.242;2023-04-30T04:10:19;15.00;98.90
13148;DHT22;6639;50.956;4.242;2023-04-30T04:12:46;14.90;98.90
13148;DHT22;6639;50.956;4.242;2023-04-30T04:15:13;15.00;99.00
13148;DHT22;6639;50.956;4.242;2023-04-30T04:17:41;15.00;99.00
13148;DHT22;6639;50.956;4.242;2023-04-30T04:20:09;15.10;98.90
13148;DHT22;6639;50.956;4.242;2023-04-30T04:22:36;15.00;99.00
13148;DHT22;6639;50.956;4.242;2023-04-30T04:25:03;15.00;99.10
13148;DHT22;6639;50.956;4.242;2023-04-30T04:27:30;14.90;99.20
13148;DHT22;6639;50.956;4.242;2023-04-30T04:29:57;14.90;99.30
13148;DHT22;6639;50.956;4.242;2023-04-30T04:32:24;15.00;99.30
13148;DHT22;6639;50.956;4.242;2023-04-30T04:34:53;15.00;99.30
13148;DHT22;6639;50.956;4.242;2023-04-30T04:37:21;15.00;99.30
13148;DHT22;6639;50.956;4.242;2023-04-30T04:39:49;15.00;99.50
13148;DHT22;6639;50.956;4.242;2023-04-30T04:42:16;14.90;99.50
13148;DHT22;6639;50.956;4.242;2023-04-30T04:44:43;15.10;99.40
13148;DHT22;6639;50.956;4.242;2023-04-30T04:47:10;15.10;99.50
13148;DHT22;6639;50.956;4.242;2023-04-30T04:49:37;15.10;99.50
13148;DHT22;6639;50.956;4.242;2023-04-30T04:52:06;15.20;99.60
13148;DHT22;6639;50.956;4.242;2023-04-30T04:54:33;15.20;99.70
13148;DHT22;6639;50.956;4.242;2023-04-30T04:57:00;15.00;99.90
13148;DHT22;6639;50.956;4.242;2023-04-30T04:59:27;15.10;99.90
13148;DHT22;6639;50.956;4.242;2023-04-30T05:01:54;15.10;99.90
13148;DHT22;6639;50.956;4.242;2023-04-30T05:04:22;15.10;99.90
13148;DHT22;6639;50.956;4.242;2023-04-30T05:06:49;15.30;99.90
13148;DHT22;6639;50.956;4.242;2023-04-30T05:09:17;15.20;99.90
13148;DHT22;6639;50.956;4.242;2023-04-30T05:11:44;15.50;99.90
13148;DHT22;6639;50.956;4.242;2023-04-30T05:14:13;15.50;99.90
13148;DHT22;6639;50.956;4.242;2023-04-30T05:16:40;15.70;99.90
13148;DHT22;6639;50.956;4.242;2023-04-30T05:19:07;15.70;99.90
13148;DHT22;6639;50.956;4.242;2023-04-30T05:21:34;15.90;99.90
13148;DHT22;6639;50.956;4.242;2023-04-30T05:24:02;16.10;99.90
13148;DHT22;6639;50.956;4.242;2023-04-30T05:26:30;16.30;99.90
13148;DHT22;6639;50.956;4.242;2023-04-30T05:28:57;16.60;99.90
13148;DHT22;6639;50.956;4.242;2023-04-30T05:31:24;16.80;99.90
13148;DHT22;6639;50.956;4.242;2023-04-30T05:33:51;17.10;99.90
13148;DHT22;6639;50.956;4.242;2023-04-30T05:36:18;17.40;99.90
13148;DHT22;6639;50.956;4.242;2023-04-30T05:38:45;17.60;99.90
13148;DHT22;6639;50.956;4.242;2023-04-30T05:41:12;17.70;99.90
13148;DHT22;6639;50.956;4.242;2023-04-30T05:43:40;18.00;99.90
13148;DHT22;6639;50.956;4.242;2023-04-30T05:46:07;18.20;99.90
13148;DHT22;6639;50.956;4.242;2023-04-30T05:48:34;17.80;99.90
13148;DHT22;6639;50.956;4.242;2023-04-30T05:51:01;18.10;99.90
13148;DHT22;6639;50.956;4.242;2023-04-30T05:53:27;17.50;99.90
13148;DHT22;6639;50.956;4.242;2023-04-30T05:55:54;17.10;99.90
13148;DHT22;6639;50.956;4.242;2023-04-30T05:58:21;16.20;99.90
13148;DHT22;6639;50.956;4.242;2023-04-30T06:00:50;15.70;99.90
13148;DHT22;6639;50.956;4.242;2023-04-30T06:03:17;15.70;99.90
13148;DHT22;6639;50.956;4.242;2023-04-30T06:05:46;15.60;99.90
13148;DHT22;6639;50.956;4.242;2023-04-30T06:08:13;15.10;99.90
13148;DHT22;6639;50.956;4.242;2023-04-30T06:10:40;15.30;99.90
13148;DHT22;6639;50.956;4.242;2023-04-30T06:13:07;15.30;99.90
13148;DHT22;6639;50.956;4.242;2023-04-30T06:15:34;15.60;99.90
13148;DHT22;6639;50.956;4.242;2023-04-30T06:18:03;15.60;99.90
13148;DHT22;6639;50.956;4.242;2023-04-30T06:20:30;15.70;99.90
13148;DHT22;6639;50.956;4.242;2023-04-30T06:22:56;16.00;99.90
13148;DHT22;6639;50.956;4.242;2023-04-30T06:25:24;16.20;99.90
13148;DHT22;6639;50.956;4.242;2023-04-30T06:27:52;16.70;99.90
13148;DHT22;6639;50.956;4.242;2023-04-30T06:30:19;16.90;99.90
13148;DHT22;6639;50.956;4.242;2023-04-30T06:32:46;17.30;99.90
13148;DHT22;6639;50.956;4.242;2023-04-30T06:35:14;17.50;99.90
13148;DHT22;6639;50.956;4.242;2023-04-30T06:37:43;18.10;99.90
13148;DHT22;6639;50.956;4.242;2023-04-30T06:40:11;18.60;99.90
13148;DHT22;6639;50.956;4.242;2023-04-30T06:42:38;18.50;99.90
13148;DHT22;6639;50.956;4.242;2023-04-30T06:45:06;18.40;99.90
13148;DHT22;6639;50.956;4.242;2023-04-30T06:47:33;18.80;99.90
13148;DHT22;6639;50.956;4.242;2023-04-30T06:50:02;18.80;99.90
13148;DHT22;6639;50.956;4.242;2023-04-30T06:52:31;19.10;99.90
13148;DHT22;6639;50.956;4.242;2023-04-30T06:54:58;19.50;99.90
13148;DHT22;6639;50.956;4.242;2023-04-30T06:57:25;19.70;99.90
13148;DHT22;6639;50.956;4.242;2023-04-30T06:59:52;19.30;99.90
13148;DHT22;6639;50.956;4.242;2023-04-30T07:02:21;20.10;99.90
13148;DHT22;6639;50.956;4.242;2023-04-30T07:04:48;19.80;99.90
13148;DHT22;6639;50.956;4.242;2023-04-30T07:07:15;19.20;99.90
13148;DHT22;6639;50.956;4.242;2023-04-30T07:09:45;19.00;99.90
13148;DHT22;6639;50.956;4.242;2023-04-30T07:12:12;19.00;99.90
13148;DHT22;6639;50.956;4.242;2023-04-30T07:14:40;19.20;99.90
13148;DHT22;6639;50.956;4.242;2023-04-30T07:17:07;19.30;99.90
13148;DHT22;6639;50.956;4.242;2023-04-30T07:19:33;19.50;99.90
13148;DHT22;6639;50.956;4.242;2023-04-30T07:22:01;19.60;99.90
13148;DHT22;6639;50.956;4.242;2023-04-30T07:24:28;19.50;99.90
13148;DHT22;6639;50.956;4.242;2023-04-30T07:26:59;19.50;99.90
13148;DHT22;6639;50.956;4.242;2023-04-30T07:29:28;19.60;99.90
13148;DHT22;6639;50.956;4.242;2023-04-30T07:31:55;19.50;99.90
13148;DHT22;6639;50.956;4.242;2023-04-30T07:34:57;19.20;99.90
13148;DHT22;6639;50.956;4.242;2023-04-30T07:37:34;19.80;99.90
13148;DHT22;6639;50.956;4.242;2023-04-30T07:40:01;20.30;99.90
13148;DHT22;6639;50.956;4.242;2023-04-30T07:42:35;20.60;99.90
13148;DHT22;6639;50.956;4.242;2023-04-30T07:45:02;20.50;99.90
13148;DHT22;6639;50.956;4.242;2023-04-30T07:47:42;20.30;99.90
13148;DHT22;6639;50.956;4.242;2023-04-30T07:50:12;20.60;99.90
13148;DHT22;6639;50.956;4.242;2023-04-30T07:52:39;20.70;99.90
13148;DHT22;6639;50.956;4.242;2023-04-30T07:55:07;21.20;99.90
13148;DHT22;6639;50.956;4.242;2023-04-30T07:57:35;22.20;99.90
13148;DHT22;6639;50.956;4.242;2023-04-30T08:00:03;22.50;99.70
13148;DHT22;6639;50.956;4.242;2023-04-30T08:02:30;22.70;99.30
13148;DHT22;6639;50.956;4.242;2023-04-30T08:04:57;22.70;98.90
13148;DHT22;6639;50.956;4.242;2023-04-30T08:07:24;23.30;97.90
13148;DHT22;6639;50.956;4.242;2023-04-30T08:09:51;23.20;98.50
13148;DHT22;6639;50.956;4.242;2023-04-30T08:12:24;22.80;98.20
13148;DHT22;6639;50.956;4.242;2023-04-30T08:15:01;22.90;98.70
13148;DHT22;6639;50.956;4.242;2023-04-30T08:17:31;22.40;99.30
13148;DHT22;6639;50.956;4.242;2023-04-30T08:19:58;22.40;99.30
13148;DHT22;6639;50.956;4.242;2023-04-30T08:22:25;23.10;99.10
13148;DHT22;6639;50.956;4.242;2023-04-30T08:24:53;23.70;98.00
13148;DHT22;6639;50.956;4.242;2023-04-30T08:27:20;24.10;97.70
13148;DHT22;6639;50.956;4.242;2023-04-30T08:29:47;24.20;98.10
13148;DHT22;6639;50.956;4.242;2023-04-30T08:32:18;24.20;98.20
13148;DHT22;6639;50.956;4.242;2023-04-30T08:34:45;23.90;97.20
13148;DHT22;6639;50.956;4.242;2023-04-30T08:37:12;24.10;96.90
13148;DHT22;6639;50.956;4.242;2023-04-30T08:39:40;24.00;98.50
13148;DHT22;6639;50.956;4.242;2023-04-30T08:42:24;23.90;97.80
13148;DHT22;6639;50.956;4.242;2023-04-30T08:44:56;24.80;97.00
13148;DHT22;6639;50.956;4.242;2023-04-30T08:47:26;25.00;97.00
13148;DHT22;6639;50.956;4.242;2023-04-30T08:49:53;25.20;97.20
13148;DHT22;6639;50.956;4.242;2023-04-30T08:52:21;25.00;96.20
13148;DHT22;6639;50.956;4.242;2023-04-30T08:54:52;25.20;96.30
13148;DHT22;6639;50.956;4.242;2023-04-30T08:57:20;24.90;96.50
13148;DHT22;6639;50.956;4.242;2023-04-30T08:59:50;24.30;96.80
13148;DHT22;6639;50.956;4.242;2023-04-30T09:02:17;24.20;96.90
13148;DHT22;6639;50.956;4.242;2023-04-30T09:04:47;24.20;96.90
13148;DHT22;6639;50.956;4.242;2023-04-30T09:07:14;23.60;96.30
13148;DHT22;6639;50.956;4.242;2023-04-30T09:09:54;23.50;96.70
13148;DHT22;6639;50.956;4.242;2023-04-30T09:12:24;23.10;96.20
13148;DHT22;6639;50.956;4.242;2023-04-30T09:15:19;23.50;96.90
13148;DHT22;6639;50.956;4.242;2023-04-30T09:17:46;23.50;97.90
13148;DHT22;6639;50.956;4.242;2023-04-30T09:23:19;23.70;96.70
13148;DHT22;6639;50.956;4.242;2023-04-30T09:25:50;23.90;96.40
13148;DHT22;6639;50.956;4.242;2023-04-30T09:28:19;24.30;96.00
13148;DHT22;6639;50.956;4.242;2023-04-30T09:30:49;23.40;96.10
13148;DHT22;6639;50.956;4.242;2023-04-30T09:33:16;23.60;97.00
13148;DHT22;6639;50.956;4.242;2023-04-30T09:35:45;24.30;97.00
13148;DHT22;6639;50.956;4.242;2023-04-30T09:51:31;25.60;96.10
13148;DHT22;6639;50.956;4.242;2023-04-30T09:54:01;25.30;93.90
13148;DHT22;6639;50.956;4.242;2023-04-30T09:56:29;24.40;95.80
13148;DHT22;6639;50.956;4.242;2023-04-30T09:59:00;24.90;96.30
13148;DHT22;6639;50.956;4.242;2023-04-30T10:01:29;24.80;94.90
13148;DHT22;6639;50.956;4.242;2023-04-30T10:03:57;24.50;95.00
13148;DHT22;6639;50.956;4.242;2023-04-30T10:06:24;24.10;95.10
13148;DHT22;6639;50.956;4.242;2023-04-30T10:08:56;24.00;94.70
13148;DHT22;6639;50.956;4.242;2023-04-30T10:11:27;24.60;94.20
13148;DHT22;6639;50.956;4.242;2023-04-30T10:13:59;24.40;95.00
13148;DHT22;6639;50.956;4.242;2023-04-30T10:16:35;24.70;94.90
13148;DHT22;6639;50.956;4.242;2023-04-30T10:19:09;25.20;95.20
13148;DHT22;6639;50.956;4.242;2023-04-30T10:21:56;25.30;93.40
13148;DHT22;6639;50.956;4.242;2023-04-30T10:24:38;24.40;94.50
13148;DHT22;6639;50.956;4.242;2023-04-30T10:27:09;23.90;94.40
13148;DHT22;6639;50.956;4.242;2023-04-30T10:29:36;24.50;94.10
13148;DHT22;6639;50.956;4.242;2023-04-30T10:32:04;24.20;93.60
13148;DHT22;6639;50.956;4.242;2023-04-30T10:34:39;24.50;93.50
13148;DHT22;6639;50.956;4.242;2023-04-30T10:37:17;25.00;93.30
13148;DHT22;6639;50.956;4.242;2023-04-30T10:39:51;24.80;94.40
13148;DHT22;6639;50.956;4.242;2023-04-30T10:42:18;25.10;93.70
13148;DHT22;6639;50.956;4.242;2023-04-30T10:44:45;25.30;94.00
13148;DHT22;6639;50.956;4.242;2023-04-30T10:47:13;24.90;93.10
13148;DHT22;6639;50.956;4.242;2023-04-30T10:49:48;25.50;94.00
13148;DHT22;6639;50.956;4.242;2023-04-30T10:52:26;25.00;92.10
13148;DHT22;6639;50.956;4.242;2023-04-30T10:54:57;25.00;93.20
13148;DHT22;6639;50.956;4.242;2023-04-30T10:57:28;25.00;94.20
13148;DHT22;6639;50.956;4.242;2023-04-30T11:10:32;24.60;93.30
13148;DHT22;6639;50.956;4.242;2023-04-30T11:13:04;24.70;94.00
13148;DHT22;6639;50.956;4.242;2023-04-30T11:15:34;24.90;94.60
13148;DHT22;6639;50.956;4.242;2023-04-30T11:18:14;24.80;94.70
13148;DHT22;6639;50.956;4.242;2023-04-30T11:20:49;24.60;94.90
13148;DHT22;6639;50.956;4.242;2023-04-30T11:23:22;24.70;93.20
13148;DHT22;6639;50.956;4.242;2023-04-30T11:26:17;24.10;93.50
13148;DHT22;6639;50.956;4.242;2023-04-30T11:28:52;23.70;93.40
13148;DHT22;6639;50.956;4.242;2023-04-30T11:31:22;24.00;92.90
13148;DHT22;6639;50.956;4.242;2023-04-30T11:34:02;24.40;93.50
13148;DHT22;6639;50.956;4.242;2023-04-30T11:36:32;24.70;94.10
13148;DHT22;6639;50.956;4.242;2023-04-30T11:39:00;24.80;92.60
13148;DHT22;6639;50.956;4.242;2023-04-30T11:41:48;24.90;92.30
13148;DHT22;6639;50.956;4.242;2023-04-30T11:44:22;25.20;93.20
13148;DHT22;6639;50.956;4.242;2023-04-30T11:46:51;25.20;94.30
13148;DHT22;6639;50.956;4.242;2023-04-30T11:49:22;24.90;92.70
13148;DHT22;6639;50.956;4.242;2023-04-30T11:51:52;24.70;92.30
13148;DHT22;6639;50.956;4.242;2023-04-30T11:54:21;24.70;93.70
13148;DHT22;6639;50.956;4.242;2023-04-30T11:56:50;24.60;92.40
13148;DHT22;6639;50.956;4.242;2023-04-30T11:59:23;24.80;94.40
13148;DHT22;6639;50.956;4.242;2023-04-30T12:01:53;25.90;92.70
13148;DHT22;6639;50.956;4.242;2023-04-30T12:04:20;25.80;93.40
13148;DHT22;6639;50.956;4.242;2023-04-30T12:06:47;25.40;91.40
13148;DHT22;6639;50.956;4.242;2023-04-30T12:09:14;25.00;92.40
13148;DHT22;6639;50.956;4.242;2023-04-30T12:11:43;25.00;93.90
13148;DHT22;6639;50.956;4.242;2023-04-30T12:14:25;25.20;91.70
13148;DHT22;6639;50.956;4.242;2023-04-30T12:17:00;24.80;91.30
13148;DHT22;6639;50.956;4.242;2023-04-30T12:19:37;24.60;91.10
13148;DHT22;6639;50.956;4.242;2023-04-30T12:22:07;24.80;91.50
13148;DHT22;6639;50.956;4.242;2023-04-30T12:24:37;24.60;91.70
13148;DHT22;6639;50.956;4.242;2023-04-30T12:27:07;24.50;92.40
13148;DHT22;6639;50.956;4.242;2023-04-30T12:29:44;23.90;92.00
13148;DHT22;6639;50.956;4.242;2023-04-30T12:32:16;23.90;92.90
13148;DHT22;6639;50.956;4.242;2023-04-30T12:34:46;23.90;93.10
13148;DHT22;6639;50.956;4.242;2023-04-30T12:37:14;23.90;92.70
13148;DHT22;6639;50.956;4.242;2023-04-30T12:39:42;24.10;94.40
13148;DHT22;6639;50.956;4.242;2023-04-30T12:42:12;23.90;92.30
13148;DHT22;6639;50.956;4.242;2023-04-30T12:44:45;23.90;92.80
13148;DHT22;6639;50.956;4.242;2023-04-30T12:47:15;24.10;92.80
13148;DHT22;6639;50.956;4.242;2023-04-30T12:49:44;24.50;93.20
13148;DHT22;6639;50.956;4.242;2023-04-30T12:52:12;24.80;93.00
13148;DHT22;6639;50.956;4.242;2023-04-30T12:54:42;23.90;92.20
13148;DHT22;6639;50.956;4.242;2023-04-30T12:57:11;24.20;91.70
13148;DHT22;6639;50.956;4.242;2023-04-30T12:59:44;24.70;90.80
13148;DHT22;6639;50.956;4.242;2023-04-30T13:02:25;24.20;92.10
13148;DHT22;6639;50.956;4.242;2023-04-30T13:05:00;24.10;90.70
13148;DHT22;6639;50.956;4.242;2023-04-30T13:07:39;24.20;91.50
13148;DHT22;6639;50.956;4.242;2023-04-30T13:10:10;24.50;92.80
13148;DHT22;6639;50.956;4.242;2023-04-30T13:12:39;24.80;92.00
13148;DHT22;6639;50.956;4.242;2023-04-30T13:15:08;24.30;91.70
13148;DHT22;6639;50.956;4.242;2023-04-30T13:17:43;24.20;90.70
13148;DHT22;6639;50.956;4.242;2023-04-30T13:20:15;24.90;90.50
13148;DHT22;6639;50.956;4.242;2023-04-30T13:22:59;25.40;90.70
13148;DHT22;6639;50.956;4.242;2023-04-30T13:25:36;25.40;91.30
13148;DHT22;6639;50.956;4.242;2023-04-30T13:28:04;25.00;91.60
13148;DHT22;6639;50.956;4.242;2023-04-30T13:30:32;24.80;92.50
13148;DHT22;6639;50.956;4.242;2023-04-30T13:33:06;25.30;91.00
13148;DHT22;6639;50.956;4.242;2023-04-30T13:35:37;25.60;91.30
13148;DHT22;6639;50.956;4.242;2023-04-30T13:38:08;25.50;90.40
13148;DHT22;6639;50.956;4.242;2023-04-30T13:40:37;25.90;90.00
13148;DHT22;6639;50.956;4.242;2023-04-30T13:43:11;24.80;90.90
13148;DHT22;6639;50.956;4.242;2023-04-30T13:45:51;25.40;90.90
13148;DHT22;6639;50.956;4.242;2023-04-30T13:48:24;25.70;91.00
13148;DHT22;6639;50.956;4.242;2023-04-30T13:50:59;25.20;92.00
13148;DHT22;6639;50.956;4.242;2023-04-30T13:53:26;25.70;90.80
13148;DHT22;6639;50.956;4.242;2023-04-30T13:55:56;25.00;90.10
13148;DHT22;6639;50.956;4.242;2023-04-30T13:58:27;24.80;91.70
13148;DHT22;6639;50.956;4.242;2023-04-30T14:01:04;25.20;89.90
13148;DHT22;6639;50.956;4.242;2023-04-30T14:03:33;26.00;87.60
13148;DHT22;6639;50.956;4.242;2023-04-30T14:06:03;26.60;86.80
13148;DHT22;6639;50.956;4.242;2023-04-30T14:08:34;26.90;84.90
13148;DHT22;6639;50.956;4.242;2023-04-30T14:11:13;25.40;88.20
13148;DHT22;6639;50.956;4.242;2023-04-30T14:13:51;25.40;90.10
13148;DHT22;6639;50.956;4.242;2023-04-30T14:16:29;25.20;90.60
13148;DHT22;6639;50.956;4.242;2023-04-30T14:23:14;25.70;87.40
13148;DHT22;6639;50.956;4.242;2023-04-30T14:25:52;26.20;90.60
13148;DHT22;6639;50.956;4.242;2023-04-30T14:28:20;25.40;90.10
13148;DHT22;6639;50.956;4.242;2023-04-30T14:30:50;25.70;87.40
13148;DHT22;6639;50.956;4.242;2023-04-30T14:33:24;25.40;86.70
13148;DHT22;6639;50.956;4.242;2023-04-30T14:35:54;25.80;87.10
13148;DHT22;6639;50.956;4.242;2023-04-30T14:38:22;25.90;88.40
13148;DHT22;6639;50.956;4.242;2023-04-30T14:40:53;25.50;87.70
13148;DHT22;6639;50.956;4.242;2023-04-30T14:43:23;24.60;88.80
13148;DHT22;6639;50.956;4.242;2023-04-30T14:45:55;24.70;89.50
13148;DHT22;6639;50.956;4.242;2023-04-30T14:48:22;25.00;89.00
13148;DHT22;6639;50.956;4.242;2023-04-30T14:50:49;24.90;87.80
13148;DHT22;6639;50.956;4.242;2023-04-30T14:53:17;24.60;89.30
13148;DHT22;6639;50.956;4.242;2023-04-30T14:55:51;24.80;87.70
13148;DHT22;6639;50.956;4.242;2023-04-30T14:58:18;25.00;88.40
13148;DHT22;6639;50.956;4.242;2023-04-30T15:00:49;25.30;86.40
13148;DHT22;6639;50.956;4.242;2023-04-30T15:03:17;25.00;87.30
13148;DHT22;6639;50.956;4.242;2023-04-30T15:05:44;24.60;87.90
13148;DHT22;6639;50.956;4.242;2023-04-30T15:08:11;24.30;89.80
13148;DHT22;6639;50.956;4.242;2023-04-30T15:10:42;24.40;90.10
13148;DHT22;6639;50.956;4.242;2023-04-30T15:13:12;24.70;87.00
13148;DHT22;6639;50.956;4.242;2023-04-30T15:15:43;25.20;90.00
13148;DHT22;6639;50.956;4.242;2023-04-30T15:18:11;25.90;88.70
13148;DHT22;6639;50.956;4.242;2023-04-30T15:20:47;25.10;87.60
13148;DHT22;6639;50.956;4.242;2023-04-30T15:23:25;24.50;88.20
13148;DHT22;6639;50.956;4.242;2023-04-30T15:25:54;24.30;88.70
13148;DHT22;6639;50.956;4.242;2023-04-30T15:28:25;24.40;89.20
13148;DHT22;6639;50.956;4.242;2023-04-30T15:30:55;24.80;88.70
13148;DHT22;6639;50.956;4.242;2023-04-30T15:33:26;24.40;87.80
13148;DHT22;6639;50.956;4.242;2023-04-30T15:35:56;24.10;89.40
13148;DHT22;6639;50.956;4.242;2023-04-30T15:38:27;24.00;89.60
13148;DHT22;6639;50.956;4.242;2023-04-30T15:40:57;24.40;88.10
13148;DHT22;6639;50.956;4.242;2023-04-30T17:05:01;24.10;87.40
13148;DHT22;6639;50.956;4.242;2023-04-30T17:07:58;23.70;88.50
13148;DHT22;6639;50.956;4.242;2023-04-30T17:10:45;23.90;89.40
13148;DHT22;6639;50.956;4.242;2023-04-30T17:13:13;23.90;90.20
13148;DHT22;6639;50.956;4.242;2023-04-30T17:15:43;24.30;88.10
13148;DHT22;6639;50.956;4.242;2023-04-30T17:18:11;24.60;88.10
13148;DHT22;6639;50.956;4.242;2023-04-30T17:20:41;24.20;88.00
13148;DHT22;6639;50.956;4.242;2023-04-30T17:23:10;24.90;87.40
13148;DHT22;6639;50.956;4.242;2023-04-30T17:25:37;25.10;86.40
13148;DHT22;6639;50.956;4.242;2023-04-30T17:28:04;25.20;85.80
13148;DHT22;6639;50.956;4.242;2023-04-30T17:30:40;24.90;85.20
13148;DHT22;6639;50.956;4.242;2023-04-30T17:33:09;24.80;85.90
13148;DHT22;6639;50.956;4.242;2023-04-30T17:35:36;24.70;85.10
13148;DHT22;6639;50.956;4.242;2023-04-30T17:38:04;24.80;85.80
13148;DHT22;6639;50.956;4.242;2023-04-30T17:40:31;25.00;85.50
13148;DHT22;6639;50.956;4.242;2023-04-30T17:42:59;25.30;85.50
13148;DHT22;6639;50.956;4.242;2023-04-30T17:45:35;25.30;87.50
13148;DHT22;6639;50.956;4.242;2023-04-30T17:48:03;25.20;87.50
13148;DHT22;6639;50.956;4.242;2023-04-30T17:50:30;25.00;89.00
13148;DHT22;6639;50.956;4.242;2023-04-30T17:52:58;25.20;89.50
13148;DHT22;6639;50.956;4.242;2023-04-30T17:55:26;24.20;88.60
13148;DHT22;6639;50.956;4.242;2023-04-30T17:57:53;24.40;89.80